Time;durP1;ratioP1;P1;durP2;ratioP2;P2;SDS_P1;SDS_P2;PMS_P1;PMS_P2;Temp;Humidity;BMP_temperature;BMP_pressure;BME280_temperature;BME280_humidity;BME280_pressure;Samples;Min_cycle;Max_cycle;Signal;HPM_P1;HPM_P2
2023/09/16 00:01:56;;;;;;;3.55;2.00;;;;;;;27.02;37.85;100052.81;4484840;32;34695;-66
2023/09/16 00:04:24;;;;;;;3.97;1.80;;;;;;;27.01;37.85;100047.56;4484819;32;34126;-66
2023/09/16 00:06:52;;;;;;;4.75;2.10;;;;;;;27.01;37.74;100053.06;4484592;32;33267;-66
2023/09/16 00:09:19;;;;;;;5.22;2.15;;;;;;;27.00;37.78;100054.97;4484782;32;33820;-67
2023/09/16 00:11:47;;;;;;;2.95;1.80;;;;;;;26.99;37.65;100050.53;4484625;32;34828;-66
2023/09/16 00:14:18;;;;;;;4.95;1.73;;;;;;;26.99;37.69;100060.66;4483615;32;33732;-66
2023/09/16 00:16:45;;;;;;;3.75;1.73;;;;;;;26.98;37.72;100062.56;4484511;32;33181;-67
2023/09/16 00:19:13;;;;;;;4.22;2.05;;;;;;;26.97;37.82;100058.19;4484360;32;34679;-66
2023/09/16 00:21:42;;;;;;;4.40;1.77;;;;;;;26.99;37.69;100057.94;4484346;32;33862;-67
2023/09/16 00:24:14;;;;;;;4.55;2.42;;;;;;;26.96;37.65;100054.63;4483271;32;33511;-66
2023/09/16 00:26:42;;;;;;;4.37;2.03;;;;;;;26.96;37.74;100067.47;4484363;32;33610;-67
2023/09/16 00:29:09;;;;;;;3.33;1.70;;;;;;;26.97;37.75;100060.91;4484508;32;33789;-66
2023/09/16 00:31:37;;;;;;;3.53;2.00;;;;;;;26.95;37.76;100052.97;4484403;32;33852;-66
2023/09/16 00:34:06;;;;;;;4.00;1.73;;;;;;;26.95;37.74;100058.44;4483115;32;33774;-67
2023/09/16 00:36:34;;;;;;;3.62;1.33;;;;;;;26.95;37.81;100065.78;4484417;32;33197;-66
2023/09/16 00:39:01;;;;;;;5.40;1.75;;;;;;;26.94;37.80;100062.22;4484411;32;33894;-67
2023/09/16 00:41:29;;;;;;;4.90;2.03;;;;;;;26.95;37.84;100068.53;4482950;32;33994;-67
2023/09/16 00:43:57;;;;;;;4.10;2.05;;;;;;;26.94;37.83;100059.47;4470249;32;33791;-66
2023/09/16 00:46:24;;;;;;;5.80;1.95;;;;;;;26.94;37.77;100067.69;4484352;32;33355;-66
2023/09/16 00:48:52;;;;;;;3.12;1.87;;;;;;;26.93;37.75;100057.84;4484121;32;33605;-67
2023/09/16 00:51:20;;;;;;;4.55;2.28;;;;;;;26.93;37.78;100054.25;4483081;32;34112;-66
2023/09/16 00:53:48;;;;;;;4.30;2.22;;;;;;;26.92;37.83;100058.91;4470208;32;34567;-66
2023/09/16 00:56:16;;;;;;;4.43;2.33;;;;;;;26.91;37.83;100051.78;4483001;32;33049;-67
2023/09/16 00:58:44;;;;;;;3.67;2.28;;;;;;;26.92;37.81;100058.09;4483195;32;34276;-66
2023/09/16 01:01:12;;;;;;;4.25;1.90;;;;;;;26.90;37.80;100047.34;4470143;32;34494;-66
2023/09/16 01:03:41;;;;;;;5.72;2.70;;;;;;;26.90;37.82;100061.03;4482717;32;33116;-66
2023/09/16 01:06:16;;;;;;;5.43;2.00;;;;;;;26.89;37.86;100056.66;4483078;32;33987;-66
2023/09/16 01:08:47;;;;;;;6.22;2.45;;;;;;;26.90;37.88;100065.69;4484322;32;34682;-67
2023/09/16 01:11:15;;;;;;;4.60;2.30;;;;;;;26.90;37.92;100058.31;4484401;32;33967;-66
2023/09/16 01:13:42;;;;;;;4.15;2.12;;;;;;;26.89;37.98;100064.03;4484511;32;33817;-66
2023/09/16 01:16:31;;;;;;;4.70;2.17;;;;;;;26.88;38.00;100065.13;4483967;32;34657;-67
2023/09/16 01:19:23;;;;;;;7.73;2.23;;;;;;;26.88;38.06;100056.91;4484112;32;33652;-67
2023/09/16 01:21:52;;;;;;;7.47;2.80;;;;;;;26.87;38.13;100067.03;4477595;32;35029;-66
2023/09/16 01:24:23;;;;;;;4.13;2.37;;;;;;;26.87;38.11;100064.28;4457216;32;34696;-66
2023/09/16 01:26:51;;;;;;;3.78;2.12;;;;;;;26.87;38.14;100064.28;4483927;32;33984;-66
2023/09/16 01:29:20;;;;;;;5.03;1.92;;;;;;;26.86;38.14;100054.41;4484274;32;33467;-66
2023/09/16 01:31:47;;;;;;;4.80;2.20;;;;;;;26.85;38.22;100060.13;4482737;32;34173;-66
2023/09/16 01:34:28;;;;;;;5.18;2.25;;;;;;;26.85;38.19;100057.37;4457163;32;34814;-66
2023/09/16 01:36:57;;;;;;;5.18;2.25;;;;;;;26.86;38.19;100054.41;4482842;32;33385;-66
2023/09/16 01:39:27;;;;;;;6.22;2.03;;;;;;;26.84;38.27;100056.56;4483774;32;34850;-66
2023/09/16 01:41:54;;;;;;;4.95;1.87;;;;;;;26.85;38.29;100062.84;4482682;32;34027;-66
2023/09/16 01:44:22;;;;;;;4.95;2.08;;;;;;;26.85;38.30;100052.72;4482630;32;34610;-66
2023/09/16 01:46:54;;;;;;;3.75;2.28;;;;;;;26.85;38.33;100060.13;4483595;32;34171;-66
2023/09/16 01:49:22;;;;;;;5.65;1.90;;;;;;;26.83;38.29;100060.38;4483655;32;33537;-66
2023/09/16 01:51:50;;;;;;;4.78;2.08;;;;;;;26.84;38.29;100064.75;4483765;32;34200;-66
2023/09/16 01:54:18;;;;;;;4.37;2.17;;;;;;;26.83;38.34;100056.81;4483678;32;34157;-66
2023/09/16 01:56:45;;;;;;;4.40;1.90;;;;;;;26.83;38.42;100062.28;4483853;32;33619;-66
2023/09/16 01:59:13;;;;;;;3.60;2.00;;;;;;;26.84;38.46;100052.97;4482314;32;33688;-66
2023/09/16 02:01:43;;;;;;;4.65;1.98;;;;;;;26.83;38.48;100065.84;4483855;32;33743;-66
2023/09/16 02:04:11;;;;;;;5.10;2.17;;;;;;;26.83;38.46;100065.03;4483722;32;34789;-66
2023/09/16 02:06:41;;;;;;;6.68;2.05;;;;;;;26.83;38.49;100059.53;4483437;32;33439;-67
2023/09/16 02:09:09;;;;;;;4.07;2.00;;;;;;;26.82;38.68;100066.09;4483652;32;33892;-66
2023/09/16 02:11:37;;;;;;;5.82;2.40;;;;;;;26.82;38.67;100064.19;4483924;32;34094;-66
2023/09/16 02:14:05;;;;;;;5.03;2.05;;;;;;;26.82;38.68;100063.38;4483312;32;35173;-66
2023/09/16 02:16:32;;;;;;;3.60;1.65;;;;;;;26.82;38.72;100066.09;4482261;32;34407;-66
2023/09/16 02:19:00;;;;;;;4.72;1.90;;;;;;;26.81;38.78;100069.88;4483455;32;34609;-66
2023/09/16 02:21:28;;;;;;;4.95;2.17;;;;;;;26.81;38.71;100067.97;4483315;32;34014;-66
2023/09/16 02:23:56;;;;;;;4.55;2.00;;;;;;;26.81;38.72;100069.88;4483410;32;33604;-66
2023/09/16 02:26:24;;;;;;;3.33;1.80;;;;;;;26.79;38.71;100064.66;4483387;32;33425;-66
2023/09/16 02:28:51;;;;;;;7.65;2.17;;;;;;;26.80;38.78;100062.75;4481908;32;33835;-66
2023/09/16 02:31:19;;;;;;;7.03;2.03;;;;;;;26.81;38.70;100059.75;4483297;32;35255;-66
2023/09/16 02:33:47;;;;;;;4.35;2.30;;;;;;;26.80;38.69;100051.81;4456391;32;34417;-66
2023/09/16 02:36:15;;;;;;;5.22;2.08;;;;;;;26.80;38.66;100060.00;4483235;32;34156;-66
2023/09/16 02:38:43;;;;;;;6.22;2.25;;;;;;;26.79;38.64;100061.94;4485191;32;34013;-66
2023/09/16 02:41:15;;;;;;;3.87;2.00;;;;;;;26.79;38.73;100056.44;4485458;32;34914;-66
2023/09/16 02:43:43;;;;;;;4.10;1.80;;;;;;;26.79;38.69;100061.94;4485269;32;34314;-66
2023/09/16 02:46:11;;;;;;;4.65;2.42;;;;;;;26.79;38.71;100066.56;4475134;32;33403;-66
2023/09/16 02:48:39;;;;;;;4.53;2.15;;;;;;;26.78;38.60;100063.00;4469257;32;34780;-66
2023/09/16 02:51:09;;;;;;;6.45;2.25;;;;;;;26.78;38.61;100059.44;4469538;32;34666;-66
2023/09/16 02:53:38;;;;;;;4.65;2.40;;;;;;;26.77;38.67;100057.78;4469429;32;34464;-67
2023/09/16 02:56:08;;;;;;;4.43;2.03;;;;;;;26.76;38.63;100059.66;4469217;32;33332;-66
2023/09/16 02:58:36;;;;;;;4.40;2.10;;;;;;;26.76;38.67;100056.94;4455884;32;34630;-66
2023/09/16 03:01:08;;;;;;;3.22;1.73;;;;;;;26.78;38.61;100059.44;4469612;32;33697;-66
2023/09/16 03:03:37;;;;;;;4.18;2.00;;;;;;;26.75;38.67;100058.00;4469603;32;33540;-66
2023/09/16 03:06:05;;;;;;;3.30;1.60;;;;;;;26.75;38.67;100054.44;4469709;32;33474;-66
2023/09/16 03:08:32;;;;;;;4.32;2.28;;;;;;;26.76;38.64;100058.84;4469522;32;33742;-66
2023/09/16 03:11:02;;;;;;;3.62;1.80;;;;;;;26.74;38.63;100053.63;4469354;32;34117;-66
2023/09/16 03:13:31;;;;;;;4.40;1.70;;;;;;;26.75;38.73;100054.44;4469215;32;33547;-66
2023/09/16 03:16:35;;;;;;;4.47;2.00;;;;;;;26.75;38.68;100057.19;4467954;32;32225;-66
2023/09/16 03:19:03;;;;;;;6.37;2.30;;;;;;;26.78;38.63;100057.53;4435899;32;33745;-66
2023/09/16 03:21:31;;;;;;;5.50;2.35;;;;;;;26.74;38.72;100052.78;4459157;32;34825;-66
2023/09/16 03:23:59;;;;;;;4.60;2.10;;;;;;;26.74;38.78;100061.00;4469511;32;34612;-66
2023/09/16 03:26:28;;;;;;;5.07;2.05;;;;;;;26.73;38.72;100059.34;4469543;32;33211;-66
2023/09/16 03:28:56;;;;;;;6.70;2.37;;;;;;;26.73;38.77;100062.91;4469078;32;34202;-66
2023/09/16 03:31:23;;;;;;;3.95;2.03;;;;;;;26.73;38.71;100062.06;4469340;32;33882;-67
2023/09/16 03:33:51;;;;;;;4.95;2.22;;;;;;;26.72;38.79;100064.00;4455060;32;33911;-66
2023/09/16 03:36:19;;;;;;;5.07;1.80;;;;;;;26.71;38.74;100071.34;4469421;32;33250;-66
2023/09/16 03:38:49;;;;;;;4.57;2.20;;;;;;;26.73;38.72;100068.38;4469406;32;33716;-66
2023/09/16 03:41:18;;;;;;;6.30;2.10;;;;;;;26.73;38.72;100067.56;4468968;32;33924;-66
2023/09/16 03:43:46;;;;;;;6.00;2.30;;;;;;;26.71;38.82;100065.88;4469375;32;33634;-66
2023/09/16 03:46:16;;;;;;;4.30;2.00;;;;;;;26.71;38.80;100065.03;4477637;32;34088;-66
2023/09/16 03:48:45;;;;;;;4.22;2.25;;;;;;;26.71;38.75;100057.66;4482467;32;32963;-66
2023/09/16 03:51:13;;;;;;;3.37;1.90;;;;;;;26.70;38.77;100056.00;4484742;32;33875;-66
2023/09/16 03:53:40;;;;;;;5.85;2.17;;;;;;;26.71;38.87;100057.66;4484667;32;34443;-66
2023/09/16 03:56:08;;;;;;;6.00;2.25;;;;;;;26.69;38.89;100051.59;4483535;32;33104;-66
2023/09/16 03:58:36;;;;;;;5.55;2.12;;;;;;;26.70;38.91;100063.38;4484872;32;33589;-66
2023/09/16 04:01:04;;;;;;;4.68;2.30;;;;;;;26.69;38.88;100057.06;4485001;32;34146;-66
2023/09/16 04:03:32;;;;;;;5.57;2.10;;;;;;;26.70;38.86;100066.12;4484398;32;34729;-66
2023/09/16 04:06:01;;;;;;;4.20;2.33;;;;;;;26.68;38.90;100060.91;4484695;32;34067;-66
2023/09/16 04:08:29;;;;;;;5.07;2.60;;;;;;;26.68;38.89;100055.41;4484932;32;34393;-66
2023/09/16 04:11:09;;;;;;;4.65;2.30;;;;;;;26.69;38.89;100053.50;4484236;32;34740;-66
2023/09/16 04:13:37;;;;;;;3.20;1.75;;;;;;;26.68;38.90;100051.84;4476323;32;33809;-66
2023/09/16 04:16:04;;;;;;;4.87;2.25;;;;;;;26.68;38.98;100051.84;4476210;32;33526;-66
2023/09/16 04:18:34;;;;;;;4.75;1.80;;;;;;;26.66;38.98;100046.59;4470561;31;33580;-66
2023/09/16 04:21:02;;;;;;;5.50;2.30;;;;;;;26.67;39.11;100058.38;4482253;32;33487;-66
2023/09/16 04:23:31;;;;;;;4.43;2.20;;;;;;;26.69;39.12;100056.25;4483387;32;33635;-66
2023/09/16 04:26:00;;;;;;;5.45;2.20;;;;;;;26.68;39.19;100060.06;4484101;32;33128;-66
2023/09/16 04:28:29;;;;;;;5.28;2.33;;;;;;;26.66;39.19;100057.56;4483225;32;33594;-66
2023/09/16 04:30:58;;;;;;;5.18;2.12;;;;;;;26.68;39.23;100065.53;4482585;32;34797;-66
2023/09/16 04:33:27;;;;;;;4.68;2.35;;;;;;;26.67;39.25;100066.59;4482465;32;34557;-66
2023/09/16 04:35:56;;;;;;;9.57;2.60;;;;;;;26.67;39.16;100078.41;4483764;32;33495;-66
2023/09/16 04:38:24;;;;;;;6.03;2.22;;;;;;;26.66;39.15;100076.72;4483474;32;33747;-66
2023/09/16 04:40:53;;;;;;;4.78;2.42;;;;;;;26.66;39.12;100076.72;4483449;32;33844;-66
2023/09/16 04:43:21;;;;;;;8.68;2.47;;;;;;;26.66;39.08;100073.16;4483109;32;34403;-66
2023/09/16 04:45:49;;;;;;;5.97;2.35;;;;;;;26.65;39.12;100075.06;4483231;32;33503;-66
2023/09/16 04:48:23;;;;;;;4.40;2.08;;;;;;;26.65;39.18;100075.06;4483442;32;34907;-65
2023/09/16 04:50:50;;;;;;;4.50;2.37;;;;;;;26.66;39.14;100078.63;4483847;32;33905;-66
2023/09/16 04:53:18;;;;;;;6.40;2.37;;;;;;;26.64;39.25;100073.41;4483645;32;34365;-67
2023/09/16 04:55:46;;;;;;;3.85;1.98;;;;;;;26.65;39.29;100074.22;4483624;32;32946;-66
2023/09/16 04:58:13;;;;;;;4.75;2.20;;;;;;;26.64;39.35;100075.31;4482694;32;33876;-66
2023/09/16 05:00:42;;;;;;;4.85;2.17;;;;;;;26.64;39.47;100075.31;4481612;32;33975;-66
2023/09/16 05:03:09;;;;;;;6.37;2.50;;;;;;;26.64;39.50;100081.59;4483611;32;33700;-66
2023/09/16 05:05:37;;;;;;;4.43;2.45;;;;;;;26.63;39.51;100085.44;4483509;32;34086;-66
2023/09/16 05:08:05;;;;;;;4.97;2.58;;;;;;;26.65;39.46;100087.91;4483746;32;33826;-66
2023/09/16 05:10:33;;;;;;;3.97;2.12;;;;;;;26.63;39.46;100084.59;4483457;32;33661;-66
2023/09/16 05:13:00;;;;;;;5.95;2.53;;;;;;;26.63;39.49;100079.94;4482996;32;34008;-66
2023/09/16 05:15:28;;;;;;;3.30;1.95;;;;;;;26.63;39.44;100077.22;4483992;32;34300;-66
2023/09/16 05:17:57;;;;;;;6.93;1.98;;;;;;;26.64;39.41;100080.78;4483772;32;33503;-66
2023/09/16 05:20:24;;;;;;;4.10;2.30;;;;;;;26.63;39.45;100082.69;4469272;32;33995;-66
2023/09/16 05:22:52;;;;;;;4.07;2.10;;;;;;;26.62;39.29;100078.25;4483499;32;33504;-66
2023/09/16 05:25:20;;;;;;;4.05;2.00;;;;;;;26.62;39.27;100082.91;4483858;32;33402;-66
2023/09/16 05:27:47;;;;;;;3.28;1.52;;;;;;;26.62;39.32;100088.37;4483381;32;33443;-67
2023/09/16 05:30:16;;;;;;;5.20;2.33;;;;;;;26.61;39.30;100084.81;4483500;32;34728;-66
2023/09/16 05:32:44;;;;;;;6.87;2.40;;;;;;;26.62;39.25;100093.84;4483875;32;34167;-66
2023/09/16 05:35:12;;;;;;;6.37;2.50;;;;;;;26.62;39.17;100093.84;4483342;32;32771;-66
2023/09/16 05:37:40;;;;;;;5.05;2.70;;;;;;;26.62;39.07;100097.41;4482061;32;33559;-66
2023/09/16 05:40:08;;;;;;;3.90;1.98;;;;;;;26.64;39.03;100091.72;4484002;32;33861;-66
2023/09/16 05:42:36;;;;;;;4.65;1.90;;;;;;;26.61;39.00;100094.94;4482724;32;33445;-66
2023/09/16 05:45:04;;;;;;;3.58;1.80;;;;;;;26.62;38.99;100091.94;4482093;32;32900;-66
2023/09/16 05:47:32;;;;;;;4.70;2.10;;;;;;;26.61;39.06;100090.28;4482841;32;34715;-67
2023/09/16 05:50:00;;;;;;;3.65;1.92;;;;;;;26.60;39.06;100085.06;4481898;32;33287;-66
2023/09/16 05:52:28;;;;;;;4.37;2.08;;;;;;;26.60;39.09;100085.91;4483561;32;33830;-66
2023/09/16 05:54:57;;;;;;;5.32;1.87;;;;;;;26.61;38.99;100087.56;4482037;32;33815;-66
2023/09/16 05:57:25;;;;;;;4.35;1.80;;;;;;;26.60;39.01;100091.37;4469403;32;33545;-66
2023/09/16 05:59:53;;;;;;;4.95;2.30;;;;;;;26.61;38.99;100092.19;4483545;32;34488;-66
2023/09/16 06:02:20;;;;;;;3.87;2.10;;;;;;;26.61;39.06;100086.72;4475130;32;34249;-66
2023/09/16 06:04:49;;;;;;;4.60;2.28;;;;;;;26.61;38.98;100087.56;4467592;32;33670;-66
2023/09/16 06:07:17;;;;;;;5.62;2.30;;;;;;;26.62;38.98;100091.13;4466126;32;35309;-66
2023/09/16 06:09:45;;;;;;;3.55;2.08;;;;;;;26.61;38.95;100090.28;4453371;32;33706;-66
2023/09/16 06:12:13;;;;;;;4.12;2.40;;;;;;;26.61;38.95;100098.50;4471491;32;34760;-66
2023/09/16 06:14:40;;;;;;;7.32;2.22;;;;;;;26.60;38.98;100094.09;4482591;32;34239;-66
2023/09/16 06:17:08;;;;;;;3.35;1.70;;;;;;;26.60;38.98;100096.00;4482546;32;34677;-66
2023/09/16 06:19:37;;;;;;;4.87;1.95;;;;;;;26.60;38.95;100093.28;4481493;32;33902;-66
2023/09/16 06:22:06;;;;;;;;;;;;;;;26.59;38.99;100092.44;4483530;32;34455;-66
2023/09/16 06:24:34;;;;;;;4.62;1.77;;;;;;;26.68;38.86;100088.25;4481730;32;33118;-66
2023/09/16 06:27:02;;;;;;;3.40;1.80;;;;;;;26.61;38.96;100084.00;4481909;32;33884;-66
2023/09/16 06:29:30;;;;;;;5.45;2.20;;;;;;;26.59;39.02;100086.16;4482950;32;33554;-66
2023/09/16 06:31:57;;;;;;;4.87;1.92;;;;;;;26.59;39.00;100092.44;4482826;32;34346;-66
2023/09/16 06:34:25;;;;;;;4.28;2.05;;;;;;;26.59;39.07;100076.03;4482812;32;33378;-66
2023/09/16 06:36:53;;;;;;;5.15;2.10;;;;;;;26.59;39.02;100078.75;4482960;32;33867;-66
2023/09/16 06:39:21;;;;;;;3.72;2.35;;;;;;;26.59;39.04;100086.16;4481717;32;34629;-67
2023/09/16 06:41:49;;;;;;;3.20;1.77;;;;;;;26.59;39.09;100084.25;4481719;32;34006;-67
2023/09/16 06:44:17;;;;;;;3.17;1.92;;;;;;;26.59;39.07;100089.72;4481864;32;34230;-66
2023/09/16 06:46:45;;;;;;;4.65;2.10;;;;;;;26.59;39.10;100089.72;4482962;32;33826;-67
2023/09/16 06:49:13;;;;;;;3.65;2.08;;;;;;;26.59;39.06;100084.25;4481524;32;33922;-67
2023/09/16 06:51:40;;;;;;;5.18;1.90;;;;;;;26.59;39.02;100092.44;4482620;32;34120;-67
2023/09/16 06:54:08;;;;;;;2.65;1.65;;;;;;;26.59;39.00;100089.72;4481690;32;33306;-67
2023/09/16 06:56:36;;;;;;;3.65;1.95;;;;;;;26.59;39.06;100089.72;4481732;32;33566;-67
2023/09/16 06:59:04;;;;;;;6.47;2.30;;;;;;;26.60;39.07;100088.63;4482851;32;34746;-66
2023/09/16 07:01:32;;;;;;;4.93;2.10;;;;;;;26.59;39.08;100089.72;4482651;32;34586;-67
2023/09/16 07:04:00;;;;;;;6.10;1.95;;;;;;;26.60;39.11;100090.53;4482841;32;32970;-66
2023/09/16 07:06:27;;;;;;;5.07;1.98;;;;;;;26.59;39.15;100100.66;4481478;32;32796;-66
2023/09/16 07:08:55;;;;;;;6.65;2.20;;;;;;;26.60;39.17;100101.50;4481394;32;33834;-66
2023/09/16 07:11:23;;;;;;;4.80;2.10;;;;;;;26.60;39.21;100098.75;4480758;32;33790;-65
2023/09/16 07:13:50;;;;;;;5.55;1.92;;;;;;;26.60;39.25;100104.22;4482299;32;33044;-64
2023/09/16 07:16:19;;;;;;;5.60;2.65;;;;;;;26.60;39.25;100096.00;4482674;32;33773;-65
2023/09/16 07:18:47;;;;;;;4.87;2.15;;;;;;;26.59;39.26;100103.41;4481363;32;33960;-64
2023/09/16 07:21:15;;;;;;;6.32;2.40;;;;;;;26.61;39.14;100103.97;4482413;32;33227;-65
2023/09/16 07:23:43;;;;;;;4.72;2.33;;;;;;;26.61;39.15;100103.16;4483681;32;32973;-64
2023/09/16 07:26:11;;;;;;;6.72;2.35;;;;;;;26.60;39.09;100101.50;4470966;32;34626;-65
2023/09/16 07:28:38;;;;;;;5.82;2.92;;;;;;;26.60;39.01;100101.50;4482106;31;33875;-64
2023/09/16 07:31:05;;;;;;;5.78;2.62;;;;;;;26.60;38.97;100105.06;4484622;32;33452;-65
2023/09/16 07:33:33;;;;;;;3.53;2.10;;;;;;;26.60;38.92;100104.22;4484871;32;33093;-64
2023/09/16 07:36:01;;;;;;;4.28;2.35;;;;;;;26.60;38.89;100109.69;4468042;32;33852;-64
2023/09/16 07:38:28;;;;;;;7.43;2.97;;;;;;;26.57;38.86;100108.25;4469158;32;34671;-66
2023/09/16 07:40:56;;;;;;;12.20;3.42;;;;;;;26.57;38.83;100102.78;4469017;32;34032;-64
2023/09/16 07:43:24;;;;;;;6.30;2.80;;;;;;;26.57;38.82;100105.53;4468916;32;34130;-66
2023/09/16 07:45:51;;;;;;;5.30;2.58;;;;;;;26.55;38.89;100110.41;4469433;32;34680;-67
2023/09/16 07:48:19;;;;;;;5.22;2.80;;;;;;;26.55;38.87;100104.13;4484838;32;33557;-66
2023/09/16 07:50:48;;;;;;;5.15;2.50;;;;;;;26.54;38.84;100103.28;4478655;32;33946;-67
2023/09/16 07:53:16;;;;;;;4.28;2.60;;;;;;;26.53;38.88;100104.34;4470192;32;33081;-66
2023/09/16 07:55:44;;;;;;;5.85;2.87;;;;;;;26.53;38.88;100101.59;4471744;32;33687;-67
2023/09/16 07:58:12;;;;;;;5.45;2.65;;;;;;;26.52;38.96;100089.00;4484560;32;33935;-67
2023/09/16 08:00:40;;;;;;;4.70;2.45;;;;;;;26.52;39.02;100089.00;4484644;32;33047;-64
2023/09/16 08:03:07;;;;;;;6.65;3.22;;;;;;;26.53;39.11;100093.38;4474365;32;33913;-64
2023/09/16 08:05:35;;;;;;;4.70;2.83;;;;;;;26.53;39.12;100103.50;4468758;32;33894;-65
2023/09/16 08:08:03;;;;;;;8.13;2.92;;;;;;;26.53;39.15;100098.84;4471546;32;34537;-65
2023/09/16 08:10:31;;;;;;;5.18;2.70;;;;;;;26.52;39.22;100089.00;4482425;32;33917;-66
2023/09/16 08:12:59;;;;;;;5.32;3.17;;;;;;;26.53;39.20;100095.28;4484461;32;33315;-65
2023/09/16 08:15:26;;;;;;;6.35;3.40;;;;;;;26.53;39.24;100093.38;4484538;32;34593;-65
2023/09/16 08:17:54;;;;;;;10.00;4.60;;;;;;;26.55;39.29;100104.13;4483299;32;34011;-65
2023/09/16 08:20:23;;;;;;;8.43;3.78;;;;;;;26.54;39.27;100094.25;4482446;32;33858;-65
2023/09/16 08:22:50;;;;;;;13.05;5.43;;;;;;;26.55;39.25;100099.47;4480851;31;33396;-65
2023/09/16 08:25:18;;;;;;;10.50;4.78;;;;;;;26.55;39.33;100104.13;4484249;32;34894;-66
2023/09/16 08:27:46;;;;;;;13.05;5.12;;;;;;;26.55;39.36;100104.94;4482289;32;34046;-65
2023/09/16 08:30:14;;;;;;;6.93;3.70;;;;;;;26.57;39.40;100108.25;4483913;32;34126;-65
2023/09/16 08:32:42;;;;;;;7.57;3.78;;;;;;;26.57;39.42;100108.25;4481689;32;33675;-65
2023/09/16 08:35:09;;;;;;;9.63;4.20;;;;;;;26.58;39.42;100103.62;4467154;32;33497;-66
2023/09/16 08:37:37;;;;;;;9.40;4.00;;;;;;;26.58;39.48;100107.22;4476444;32;33782;-65
2023/09/16 08:40:05;;;;;;;7.32;3.55;;;;;;;26.58;39.51;100104.47;4469677;32;34485;-66
2023/09/16 08:42:37;;;;;;;6.12;3.47;;;;;;;26.59;39.49;100106.13;4483216;32;33585;-65
2023/09/16 08:45:06;;;;;;;7.68;2.90;;;;;;;26.60;39.50;100102.31;4478848;32;33501;-65
2023/09/16 08:47:43;;;;;;;7.40;4.07;;;;;;;26.61;39.52;100101.22;4482112;32;33061;-66
2023/09/16 08:50:11;;;;;;;5.57;3.22;;;;;;;26.61;39.53;100103.16;4482476;32;33669;-65
2023/09/16 08:52:55;;;;;;;8.15;3.47;;;;;;;26.62;39.54;100104.81;4481019;32;33417;-66
2023/09/16 08:55:22;;;;;;;5.95;3.50;;;;;;;26.65;39.56;100107.91;4483324;32;34677;-66
2023/09/16 08:58:19;;;;;;;8.93;3.92;;;;;;;26.63;39.61;100099.09;4483042;32;33598;-66
2023/09/16 09:00:47;;;;;;;6.62;2.90;;;;;;;26.64;39.63;100099.94;4481593;31;33825;-66
2023/09/16 09:03:14;;;;;;;10.43;3.28;;;;;;;26.65;39.61;100104.34;4482635;32;33424;-66
2023/09/16 09:05:42;;;;;;;5.82;3.03;;;;;;;26.64;39.67;100106.25;4482892;32;33758;-67
2023/09/16 09:08:11;;;;;;;8.27;3.10;;;;;;;26.64;39.68;100097.19;4484315;32;33425;-66
2023/09/16 09:10:42;;;;;;;7.85;3.10;;;;;;;26.63;39.68;100107.31;4476000;32;33610;-66
2023/09/16 09:13:13;;;;;;;7.18;2.95;;;;;;;26.64;39.69;100092.56;4467125;32;34064;-67
2023/09/16 09:15:41;;;;;;;4.65;2.62;;;;;;;26.64;39.71;100092.56;4468715;32;33923;-66
2023/09/16 09:18:09;;;;;;;7.03;2.95;;;;;;;26.63;39.69;100090.91;4467009;32;33458;-67
2023/09/16 09:20:36;;;;;;;5.35;3.05;;;;;;;26.64;39.70;100099.94;4457574;32;33993;-67
2023/09/16 09:23:04;;;;;;;4.95;2.90;;;;;;;26.64;39.73;100092.56;4467212;32;34108;-67
2023/09/16 09:25:32;;;;;;;8.07;3.28;;;;;;;26.64;39.75;100095.28;4468087;32;33711;-66
2023/09/16 09:27:59;;;;;;;5.87;3.08;;;;;;;26.65;39.71;100094.22;4468712;32;34685;-66
2023/09/16 09:30:27;;;;;;;12.60;3.10;;;;;;;26.64;39.78;100084.34;4467404;32;33874;-65
2023/09/16 09:32:55;;;;;;;5.30;3.10;;;;;;;26.67;39.84;100091.22;4466997;32;34207;-66
2023/09/16 09:35:26;;;;;;;8.57;2.67;;;;;;;26.66;39.90;100090.41;4478709;32;34302;-66
2023/09/16 09:37:54;;;;;;;7.40;2.85;;;;;;;26.66;39.92;100084.91;4484001;32;34710;-67
2023/09/16 09:40:22;;;;;;;7.28;3.17;;;;;;;26.67;39.99;100085.75;4483721;32;33441;-66
2023/09/16 09:42:53;;;;;;;7.82;3.25;;;;;;;26.67;39.96;100089.34;4483950;32;33309;-66
2023/09/16 09:45:22;;;;;;;5.00;3.30;;;;;;;26.68;40.07;100091.00;4469740;32;34792;-65
2023/09/16 09:47:51;;;;;;;7.30;3.05;;;;;;;26.69;40.10;100095.41;4472562;32;33969;-66
2023/09/16 09:50:20;;;;;;;9.00;2.87;;;;;;;26.69;40.17;100095.41;4468442;32;33547;-66
2023/09/16 09:52:51;;;;;;;6.97;3.22;;;;;;;26.71;40.23;100097.87;4477355;32;33360;-66
2023/09/16 09:55:19;;;;;;;6.93;3.40;;;;;;;26.73;40.26;100100.41;4482597;32;33829;-65
2023/09/16 09:57:50;;;;;;;6.97;3.17;;;;;;;26.73;40.35;100094.94;4482463;32;34677;-65
2023/09/16 10:00:18;;;;;;;6.53;3.22;;;;;;;26.73;40.32;100089.44;4483626;32;34022;-65
2023/09/16 10:02:47;;;;;;;6.20;3.17;;;;;;;26.73;40.32;100089.44;4483614;32;33358;-65
2023/09/16 10:05:21;;;;;;;5.70;2.92;;;;;;;26.74;40.48;100085.63;4478227;32;33974;-66
2023/09/16 10:07:50;;;;;;;7.32;3.28;;;;;;;26.75;40.57;100085.38;4477539;31;33621;-66
2023/09/16 10:10:21;;;;;;;6.43;3.42;;;;;;;26.74;40.54;100081.00;4467590;32;32684;-66
2023/09/16 10:12:51;;;;;;;8.98;3.33;;;;;;;26.75;40.55;100082.66;4478115;31;33612;-66
2023/09/16 10:15:37;;;;;;;7.55;3.25;;;;;;;26.75;40.53;100076.34;4482676;32;33570;-66
2023/09/16 10:18:06;;;;;;;6.10;3.22;;;;;;;26.76;40.50;100073.34;4481813;31;34695;-66
2023/09/16 10:20:39;;;;;;;6.75;3.30;;;;;;;26.75;40.48;100079.06;4472560;32;33743;-66
2023/09/16 10:23:07;;;;;;;6.12;3.30;;;;;;;26.74;40.63;100074.69;4460973;32;32961;-66
2023/09/16 10:25:34;;;;;;;5.97;3.28;;;;;;;26.75;40.57;100079.91;4466419;32;34609;-66
2023/09/16 10:28:07;;;;;;;6.00;3.25;;;;;;;26.74;40.56;100074.69;4475381;31;33686;-66
2023/09/16 10:30:35;;;;;;;6.25;3.00;;;;;;;26.75;40.58;100076.34;4472854;31;33759;-66
2023/09/16 10:33:04;;;;;;;5.90;3.28;;;;;;;26.75;40.65;100081.81;4469720;31;33886;-66
2023/09/16 10:35:34;;;;;;;5.50;3.45;;;;;;;26.75;40.70;100073.59;4467516;32;34063;-66
2023/09/16 10:38:03;;;;;;;6.07;3.53;;;;;;;26.76;40.84;100073.34;4466948;31;33550;-66
2023/09/16 10:40:31;;;;;;;5.75;3.40;;;;;;;26.76;40.98;100072.53;4466202;32;33747;-66
2023/09/16 10:43:01;;;;;;;6.55;3.30;;;;;;;26.77;40.89;100071.47;4465741;32;33240;-66
2023/09/16 10:45:28;;;;;;;6.78;3.80;;;;;;;26.77;40.92;100076.94;4467352;32;33759;-66
2023/09/16 10:47:59;;;;;;;6.32;3.03;;;;;;;26.78;41.16;100070.41;4478311;31;34491;-66
2023/09/16 10:50:29;;;;;;;6.07;3.85;;;;;;;26.78;41.27;100078.59;4469252;32;34737;-66
2023/09/16 10:53:01;;;;;;;5.95;3.40;;;;;;;26.80;41.49;100076.44;4473888;31;33418;-66
2023/09/16 10:55:40;;;;;;;6.03;3.28;;;;;;;26.80;41.41;100073.72;4467014;31;33905;-66
2023/09/16 10:58:20;;;;;;;5.18;3.37;;;;;;;26.82;41.61;100074.31;4465636;32;33858;-66
2023/09/16 11:00:48;;;;;;;;;;;;;;;26.83;41.75;100071.31;4475777;31;34753;-66
2023/09/16 11:03:15;;;;;;;6.87;3.72;;;;;;;26.92;41.56;100069.88;4483842;31;33465;-65
2023/09/16 11:05:43;;;;;;;6.07;3.70;;;;;;;26.85;41.72;100069.16;4466678;32;33949;-66
2023/09/16 11:08:11;;;;;;;6.22;3.78;;;;;;;26.83;41.75;100063.09;4479481;31;34463;-66
2023/09/16 11:10:38;;;;;;;10.40;3.42;;;;;;;26.85;41.78;100065.59;4470879;32;33692;-66
2023/09/16 11:13:06;;;;;;;6.57;3.67;;;;;;;26.86;41.82;100064.50;4477817;32;34163;-66
2023/09/16 11:15:34;;;;;;;5.25;3.20;;;;;;;26.86;41.83;100059.03;4467937;32;34427;-66
2023/09/16 11:18:02;;;;;;;7.32;3.12;;;;;;;26.87;41.84;100049.78;4480866;31;33800;-66
2023/09/16 11:20:33;;;;;;;7.12;3.25;;;;;;;26.87;41.82;100050.59;4484686;32;33809;-66
2023/09/16 11:23:02;;;;;;;6.70;3.70;;;;;;;26.88;41.69;100043.22;4483812;31;32868;-66
2023/09/16 11:25:36;;;;;;;7.37;3.20;;;;;;;26.87;41.54;100039.66;4484584;32;34029;-66
2023/09/16 11:28:10;;;;;;;5.87;3.30;;;;;;;26.88;41.50;100040.47;4476857;31;34950;-66
2023/09/16 11:30:38;;;;;;;6.10;3.22;;;;;;;26.87;41.49;100030.59;4467171;32;33249;-66
2023/09/16 11:33:30;;;;;;;5.65;3.40;;;;;;;26.88;41.46;100035.00;4467897;32;33115;-66